createdAt,value
2023-03-19T00:01:13.203Z,100849.81
2023-03-19T00:03:39.661Z,100852.69
2023-03-19T00:06:06.576Z,100845.47
2023-03-19T00:08:32.907Z,100840.47
2023-03-19T00:10:59.274Z,100841.09
2023-03-19T00:13:25.745Z,100833.97
2023-03-19T00:15:52.073Z,100842.59
2023-03-19T00:18:18.432Z,100843.25
2023-03-19T00:20:44.784Z,100842.50
2023-03-19T00:23:11.173Z,100836.00
2023-03-19T00:25:37.515Z,100846.78
2023-03-19T00:28:03.840Z,100843.13
2023-03-19T00:30:30.237Z,100841.03
2023-03-19T00:32:57.731Z,100840.25
2023-03-19T00:35:30.515Z,100835.19
2023-03-19T00:37:56.874Z,100840.16
2023-03-19T00:40:23.269Z,100841.03
2023-03-19T00:42:49.605Z,100842.50
2023-03-19T00:45:16.541Z,100838.16
2023-03-19T00:47:43.761Z,100834.50
2023-03-19T00:50:12.743Z,100843.13
2023-03-19T00:52:39.069Z,100854.53
2023-03-19T00:55:05.754Z,100853.81
2023-03-19T00:57:32.081Z,100845.84
2023-03-19T00:59:58.436Z,100846.56
2023-03-19T01:02:26.439Z,100845.06
2023-03-19T01:04:53.532Z,100849.34
2023-03-19T01:07:19.889Z,100853.69
2023-03-19T01:09:46.564Z,100856.47
2023-03-19T01:12:12.932Z,100855.09
2023-03-19T01:14:39.512Z,100850.72
2023-03-19T01:17:06.729Z,100850.00
2023-03-19T01:19:33.120Z,100847.84
2023-03-19T01:21:59.458Z,100864.34
2023-03-19T01:24:28.890Z,100842.09
2023-03-19T01:26:55.240Z,100854.38
2023-03-19T01:29:41.863Z,100853.53
2023-03-19T01:32:13.050Z,100849.88
2023-03-19T01:35:06.068Z,100856.41
2023-03-19T01:37:40.971Z,100860.66
2023-03-19T01:40:08.936Z,100854.91
2023-03-19T01:42:35.663Z,100851.94
2023-03-19T01:45:37.384Z,100853.44
2023-03-19T01:48:27.662Z,100863.41
2023-03-19T01:51:01.697Z,100859.16
2023-03-19T01:53:53.569Z,100862.69
2023-03-19T01:56:37.534Z,100865.56
2023-03-19T01:59:11.834Z,100855.47
2023-03-19T02:02:03.268Z,100860.44
2023-03-19T02:04:29.643Z,100844.59
2023-03-19T02:06:56.270Z,100844.59
2023-03-19T02:09:23.010Z,100833.09
2023-03-19T02:11:49.335Z,100850.34
2023-03-19T02:14:16.053Z,100840.22
2023-03-19T02:16:42.395Z,100836.63
2023-03-19T02:19:09.308Z,100836.63
2023-03-19T02:21:35.651Z,100838.75
2023-03-19T02:24:01.956Z,100835.88
2023-03-19T02:26:47.614Z,100834.41
2023-03-19T02:29:14.115Z,100837.28
2023-03-19T02:31:40.994Z,100846.63
2023-03-19T02:34:27.377Z,100841.53
2023-03-19T02:36:54.479Z,100832.91
2023-03-19T02:39:22.656Z,100829.31
2023-03-19T02:41:49.360Z,100835.78
2023-03-19T02:44:19.825Z,100835.69
2023-03-19T02:46:48.045Z,100840.06
2023-03-19T02:49:15.216Z,100829.94
2023-03-19T02:51:42.038Z,100829.94
2023-03-19T02:54:08.386Z,100831.34
2023-03-19T02:56:34.740Z,100837.81
2023-03-19T02:59:01.321Z,100825.59
2023-03-19T03:01:28.372Z,100830.59
2023-03-19T03:03:54.741Z,100824.09
2023-03-19T03:06:22.248Z,100841.31
2023-03-19T03:08:48.581Z,100858.56
2023-03-19T03:11:14.923Z,100857.09
2023-03-19T03:13:41.518Z,100860.72
2023-03-19T03:16:07.887Z,100875.81
2023-03-19T03:18:34.210Z,100891.56
2023-03-19T03:21:01.410Z,100877.09
2023-03-19T03:23:27.741Z,100888.59
2023-03-19T03:25:54.071Z,100900.09
2023-03-19T03:28:20.573Z,100885.00
2023-03-19T03:30:47.008Z,100889.97
2023-03-19T03:33:13.877Z,100895.72
2023-03-19T03:35:40.509Z,100892.94
2023-03-19T03:38:06.880Z,100903.06
2023-03-19T03:40:34.372Z,100896.03
2023-03-19T03:43:01.315Z,100883.16
2023-03-19T03:45:28.320Z,100896.22
2023-03-19T03:47:54.730Z,100887.72
2023-03-19T03:50:21.091Z,100889.19
2023-03-19T03:52:49.683Z,100897.91
2023-03-19T03:55:16.156Z,100897.91
2023-03-19T03:57:42.602Z,100897.91
2023-03-19T04:00:09.168Z,100896.53
2023-03-19T04:02:42.967Z,100910.91
2023-03-19T04:05:13.471Z,100910.91
2023-03-19T04:07:39.848Z,100918.13
2023-03-19T04:10:06.223Z,100910.25
2023-03-19T04:12:32.814Z,100913.88
2023-03-19T04:14:59.185Z,100916.84
2023-03-19T04:17:26.068Z,100918.34
2023-03-19T04:19:52.455Z,100924.81
2023-03-19T04:22:18.854Z,100928.44
2023-03-19T04:24:45.230Z,100933.53
2023-03-19T04:27:11.570Z,100938.56
2023-03-19T04:29:38.857Z,100950.06
2023-03-19T04:32:05.401Z,100955.81
2023-03-19T04:34:31.862Z,100950.06
2023-03-19T04:36:58.726Z,100950.06
2023-03-19T04:39:25.707Z,100942.81
2023-03-19T04:41:52.059Z,100938.56
2023-03-19T04:44:24.811Z,100939.28
2023-03-19T04:46:52.449Z,100938.66
2023-03-19T04:49:20.775Z,100935.88
2023-03-19T04:51:47.858Z,100933.00
2023-03-19T04:54:14.910Z,100919.38
2023-03-19T04:56:41.275Z,100911.50
2023-03-19T04:59:08.478Z,100897.84
2023-03-19T05:01:34.881Z,100896.38
2023-03-19T05:04:05.530Z,100899.25
2023-03-19T05:06:34.259Z,100888.50
2023-03-19T05:09:00.765Z,100893.50
2023-03-19T05:11:27.096Z,100887.75
2023-03-19T05:14:05.630Z,100887.03
2023-03-19T05:16:44.765Z,100885.63
2023-03-19T05:19:11.116Z,100894.25
2023-03-19T05:21:37.631Z,100888.59
2023-03-19T05:24:04.497Z,100877.84
2023-03-19T05:26:34.730Z,100882.22
2023-03-19T05:29:24.082Z,100876.47
2023-03-19T05:32:10.298Z,100875.78
2023-03-19T05:34:37.356Z,100865.69
2023-03-19T05:37:03.928Z,100861.41
2023-03-19T05:39:31.047Z,100861.41
2023-03-19T05:42:01.843Z,100868.56
2023-03-19T05:44:29.696Z,100862.81
2023-03-19T05:47:15.147Z,100862.09
2023-03-19T05:49:47.234Z,100858.53
2023-03-19T05:52:13.808Z,100859.94
2023-03-19T05:54:41.322Z,100864.97
2023-03-19T05:57:29.825Z,100862.16
2023-03-19T06:00:02.672Z,100874.41
2023-03-19T06:02:35.029Z,100874.50
2023-03-19T06:05:20.629Z,100871.66
2023-03-19T06:07:47.071Z,100871.66
2023-03-19T06:10:27.252Z,100883.16
2023-03-19T06:12:56.104Z,100891.75
2023-03-19T06:15:47.417Z,100914.75
2023-03-19T06:18:23.770Z,100946.41
2023-03-19T06:20:50.249Z,100970.13
2023-03-19T06:23:17.368Z,100965.00
2023-03-19T06:25:43.824Z,100947.75
2023-03-19T06:28:10.868Z,100945.63
2023-03-19T06:30:39.825Z,100932.00
2023-03-19T06:33:27.711Z,100925.59
2023-03-19T06:35:54.387Z,100914.09
2023-03-19T06:38:21.121Z,100927.84
2023-03-19T06:40:48.260Z,101005.56
2023-03-19T06:43:14.612Z,101017.06
2023-03-19T06:45:41.301Z,101007.72
2023-03-19T06:48:07.658Z,101027.06
2023-03-19T06:50:34.247Z,101032.81
2023-03-19T06:53:00.860Z,101022.72
2023-03-19T06:55:27.193Z,101042.84
2023-03-19T06:57:53.543Z,101055.81
2023-03-19T07:00:20.676Z,101041.34
2023-03-19T07:02:47.454Z,101024.09
2023-03-19T07:05:13.767Z,101029.09
2023-03-19T07:07:40.170Z,101016.97
2023-03-19T07:10:06.644Z,101005.56
2023-03-19T07:12:32.976Z,100976.09
2023-03-19T07:14:59.299Z,100947.34
2023-03-19T07:17:26.314Z,100943.78
2023-03-19T07:19:52.660Z,100943.78
2023-03-19T07:22:19.003Z,100961.03
2023-03-19T07:24:45.404Z,100958.16
2023-03-19T07:27:11.755Z,100961.81
2023-03-19T07:29:38.231Z,100963.91
2023-03-19T07:32:04.617Z,100968.94
2023-03-19T07:34:31.027Z,100966.69
2023-03-19T07:36:57.456Z,100967.47
2023-03-19T07:39:23.814Z,100966.78
2023-03-19T07:41:50.509Z,100978.28
2023-03-19T07:44:16.854Z,100979.06
2023-03-19T07:46:43.187Z,100997.06
2023-03-19T07:49:09.536Z,101002.81
2023-03-19T07:51:36.713Z,100991.69
2023-03-19T07:54:03.065Z,101004.03
2023-03-19T07:56:29.431Z,101014.06
2023-03-19T07:58:56.128Z,101013.28
2023-03-19T08:01:22.473Z,101018.25
2023-03-19T08:03:48.935Z,101024.50
2023-03-19T08:06:15.283Z,101027.06
2023-03-19T08:08:41.708Z,101029.84
2023-03-19T08:11:08.641Z,101028.47
2023-03-19T08:13:34.979Z,101031.25
2023-03-19T08:16:01.324Z,101035.59
2023-03-19T08:18:27.703Z,101029.84
2023-03-19T08:20:54.028Z,101021.53
2023-03-19T08:23:20.805Z,101019.50
2023-03-19T08:25:47.131Z,101008.75
2023-03-19T08:28:13.471Z,101008.00
2023-03-19T08:30:39.876Z,101018.31
2023-03-19T08:33:06.709Z,101036.31
2023-03-19T08:35:33.158Z,101030.66
2023-03-19T08:37:59.565Z,101025.09
2023-03-19T08:40:26.013Z,101015.41
2023-03-19T08:42:52.872Z,101015.28
2023-03-19T08:45:19.253Z,101013.06
2023-03-19T08:47:45.774Z,101000.72
2023-03-19T08:50:12.125Z,101006.56
2023-03-19T08:52:38.494Z,101001.34
2023-03-19T08:55:05.423Z,101012.13
2023-03-19T08:57:32.129Z,101015.84
2023-03-19T08:59:58.464Z,101000.06
2023-03-19T09:02:24.804Z,100994.31
2023-03-19T09:04:51.214Z,100984.19
2023-03-19T09:07:17.649Z,100988.00
2023-03-19T09:09:44.015Z,100983.75
2023-03-19T09:12:11.140Z,100983.75
2023-03-19T09:14:37.486Z,100982.25
2023-03-19T09:17:03.998Z,100972.78
2023-03-19T09:19:30.331Z,100980.78
2023-03-19T09:21:56.694Z,100973.53
2023-03-19T09:24:23.021Z,100973.53
2023-03-19T09:26:49.678Z,100982.16
2023-03-19T09:29:16.689Z,100985.13
2023-03-19T09:31:43.020Z,100984.50
2023-03-19T09:34:09.377Z,100971.50
2023-03-19T09:36:36.482Z,100980.22
2023-03-19T09:39:02.833Z,100974.47
2023-03-19T09:41:32.204Z,100983.09
2023-03-19T09:44:02.145Z,100974.47
2023-03-19T09:46:30.935Z,100983.09
2023-03-19T09:49:03.003Z,100988.09
2023-03-19T09:51:30.753Z,100987.47
2023-03-19T09:53:58.300Z,100995.25
2023-03-19T09:56:24.622Z,100983.19
2023-03-19T09:58:51.086Z,100980.94
2023-03-19T10:01:22.046Z,100988.22
2023-03-19T10:03:54.154Z,100995.34
2023-03-19T10:06:29.275Z,100989.59
2023-03-19T10:09:01.156Z,100986.72
2023-03-19T10:11:30.801Z,100995.44
2023-03-19T10:14:17.038Z,100988.22
2023-03-19T10:16:43.435Z,100993.97
2023-03-19T10:19:10.687Z,100991.09
2023-03-19T10:21:39.567Z,100992.47
2023-03-19T10:24:17.787Z,100998.22
2023-03-19T10:26:44.121Z,101000.34
2023-03-19T10:29:11.647Z,101007.50
2023-03-19T10:31:46.440Z,101002.50
2023-03-19T10:34:18.806Z,100997.47
2023-03-19T10:36:45.277Z,100998.88
2023-03-19T10:39:14.343Z,100999.63
2023-03-19T10:41:42.676Z,101001.03
2023-03-19T10:44:22.147Z,101006.00
2023-03-19T10:46:48.505Z,101016.19
2023-03-19T10:49:15.002Z,101015.25
2023-03-19T10:51:45.234Z,101007.75
2023-03-19T10:54:21.805Z,101008.16
2023-03-19T10:56:48.147Z,101016.28
2023-03-19T10:59:21.470Z,101009.28
2023-03-19T11:01:47.797Z,101011.72
2023-03-19T11:04:17.809Z,101015.38
2023-03-19T11:06:47.969Z,101013.69
2023-03-19T11:09:16.415Z,101022.41
2023-03-19T11:11:43.619Z,101021.66
2023-03-19T11:14:24.945Z,101022.03
2023-03-19T11:16:54.087Z,101011.25
2023-03-19T11:19:21.464Z,101019.31
2023-03-19T11:22:14.228Z,101011.47
2023-03-19T11:24:41.017Z,101013.69
2023-03-19T11:27:07.747Z,101008.38
2023-03-19T11:29:38.394Z,101001.78
2023-03-19T11:32:21.059Z,101007.66
2023-03-19T11:34:54.345Z,101014.97
2023-03-19T11:37:30.552Z,101011.47
2023-03-19T11:39:59.270Z,101011.56
2023-03-19T11:42:28.532Z,101009.44
2023-03-19T11:45:00.955Z,101002.50
2023-03-19T11:47:32.448Z,101002.50
2023-03-19T11:50:01.831Z,101000.91
2023-03-19T11:53:27.991Z,100995.34
2023-03-19T11:56:02.325Z,101000.19
2023-03-19T11:58:48.084Z,101007.34
2023-03-19T12:01:28.251Z,101001.91
2023-03-19T12:04:08.041Z,101001.34
2023-03-19T12:06:34.861Z,101021.59
2023-03-19T12:09:08.352Z,101020.84
2023-03-19T12:11:34.609Z,101016.47
2023-03-19T12:14:09.697Z,101011.59
2023-03-19T12:16:46.178Z,101005.06
2023-03-19T12:19:31.990Z,101005.16
2023-03-19T12:22:07.144Z,101009.34
2023-03-19T12:24:37.884Z,101006.66
2023-03-19T12:27:22.472Z,100993.66
2023-03-19T12:30:02.033Z,100990.78
2023-03-19T12:32:32.493Z,100987.16
2023-03-19T12:34:59.731Z,100990.69
2023-03-19T12:37:30.112Z,100987.06
2023-03-19T12:40:06.810Z,100983.56
2023-03-19T12:42:37.001Z,100980.03
2023-03-19T12:45:04.772Z,100982.25
2023-03-19T12:47:35.334Z,100982.16
2023-03-19T12:50:05.852Z,100972.16
2023-03-19T12:52:32.565Z,100972.25
2023-03-19T12:55:16.222Z,100967.34
2023-03-19T12:57:52.768Z,100957.94
2023-03-19T13:00:28.553Z,100966.50
2023-03-19T13:02:57.433Z,100976.50
2023-03-19T13:05:30.688Z,100980.22
2023-03-19T13:08:16.912Z,100966.50
2023-03-19T13:10:43.237Z,100976.72
2023-03-19T13:13:22.772Z,100966.69
2023-03-19T13:15:49.352Z,100975.97
2023-03-19T13:18:28.154Z,100968.06
2023-03-19T13:21:04.601Z,100970.94
2023-03-19T13:23:32.339Z,100972.44
2023-03-19T13:25:58.684Z,100979.59
2023-03-19T13:28:29.329Z,100968.81
2023-03-19T13:30:59.361Z,100975.97
2023-03-19T13:33:25.785Z,100972.50
2023-03-19T13:35:52.150Z,100967.00
2023-03-19T13:38:19.923Z,100959.56
2023-03-19T13:40:47.080Z,100960.50
2023-03-19T13:43:28.276Z,100957.94
2023-03-19T13:46:05.488Z,100961.09
2023-03-19T13:48:31.759Z,100962.03
2023-03-19T13:51:01.864Z,100946.38
2023-03-19T13:53:31.215Z,100949.16
2023-03-19T13:56:00.936Z,100944.31
2023-03-19T13:58:49.132Z,100945.91
2023-03-19T14:01:24.321Z,100952.97
2023-03-19T14:03:58.722Z,100942.00
2023-03-19T14:06:33.314Z,100949.25
2023-03-19T14:08:59.691Z,100939.94
2023-03-19T14:11:29.001Z,100949.25
2023-03-19T14:13:55.341Z,100936.44
2023-03-19T14:16:26.094Z,100946.44
2023-03-19T14:18:55.966Z,100939.22
2023-03-19T14:21:54.703Z,100937.75
2023-03-19T14:24:55.786Z,100934.88
2023-03-19T14:27:25.486Z,100931.22
2023-03-19T14:29:51.813Z,100933.47
2023-03-19T14:32:18.820Z,100931.31
2023-03-19T14:34:45.677Z,100934.94
2023-03-19T14:37:30.721Z,100937.81
2023-03-19T14:40:04.378Z,100932.16
2023-03-19T14:42:43.389Z,100934.41
2023-03-19T14:45:14.271Z,100927.91
2023-03-19T14:47:59.451Z,100923.63
2023-03-19T14:50:44.635Z,100929.28
2023-03-19T14:53:14.574Z,100926.41
2023-03-19T14:55:41.032Z,100923.53
2023-03-19T14:58:12.060Z,100922.16
2023-03-19T15:00:45.324Z,100918.53
2023-03-19T15:03:14.606Z,100914.16
2023-03-19T15:05:40.944Z,100922.16
2023-03-19T15:08:09.449Z,100914.91
2023-03-19T15:10:39.605Z,100923.53
2023-03-19T15:13:14.308Z,100923.53
2023-03-19T15:15:49.596Z,100924.28
2023-03-19T15:18:16.250Z,100926.41
2023-03-19T15:20:43.105Z,100927.91
2023-03-19T15:23:25.739Z,100926.41
2023-03-19T15:25:57.024Z,100924.94
2023-03-19T15:28:23.873Z,100920.66
2023-03-19T15:31:03.585Z,100923.53
2023-03-19T15:33:41.504Z,100925.03
2023-03-19T15:36:16.398Z,100919.19
2023-03-19T15:38:47.445Z,100916.19
2023-03-19T15:41:13.795Z,100924.00
2023-03-19T15:43:40.402Z,100920.47
2023-03-19T15:46:07.706Z,100922.69
2023-03-19T15:48:36.061Z,100925.56
2023-03-19T15:51:02.405Z,100927.72
2023-03-19T15:53:29.423Z,100924.19
2023-03-19T15:55:55.741Z,100933.75
2023-03-19T15:58:25.794Z,100932.91
2023-03-19T16:00:53.046Z,100931.41
2023-03-19T16:03:20.126Z,100930.88
2023-03-19T16:05:50.451Z,100936.44
2023-03-19T16:08:22.142Z,100935.03
2023-03-19T16:10:48.482Z,100934.41
2023-03-19T16:13:28.154Z,100929.28
2023-03-19T16:15:55.616Z,100937.16
2023-03-19T16:18:22.960Z,100932.06
2023-03-19T16:21:00.793Z,100930.69
2023-03-19T16:23:29.448Z,100935.69
2023-03-19T16:25:56.491Z,100932.06
2023-03-19T16:28:25.762Z,100942.09
2023-03-19T16:30:52.606Z,100938.47
2023-03-19T16:33:20.513Z,100938.47
2023-03-19T16:35:46.939Z,100957.88
2023-03-19T16:38:23.014Z,100947.75
2023-03-19T16:40:49.885Z,100950.63
2023-03-19T16:43:20.248Z,100952.03
2023-03-19T16:45:49.841Z,100952.03
2023-03-19T16:48:16.333Z,100950.53
2023-03-19T16:50:43.992Z,100954.78
2023-03-19T16:53:20.995Z,100953.41
2023-03-19T16:55:57.224Z,100957.56
2023-03-19T16:58:34.820Z,100952.56
2023-03-19T17:01:01.175Z,100958.31
2023-03-19T17:03:30.037Z,100958.94
2023-03-19T17:05:56.388Z,100961.09
2023-03-19T17:08:23.972Z,100958.94
2023-03-19T17:10:50.777Z,100956.06
2023-03-19T17:13:28.167Z,100960.34
2023-03-19T17:15:54.952Z,100960.34
2023-03-19T17:18:25.015Z,100967.50
2023-03-19T17:20:55.780Z,100966.09
2023-03-19T17:23:26.694Z,100981.88
2023-03-19T17:25:53.420Z,100976.13
2023-03-19T17:28:19.749Z,100983.25
2023-03-19T17:30:46.080Z,100980.38
2023-03-19T17:33:20.195Z,100981.78
2023-03-19T17:35:46.632Z,100982.53
2023-03-19T17:38:13.205Z,100984.66
2023-03-19T17:40:39.606Z,100981.69
2023-03-19T17:43:08.095Z,100982.94
2023-03-19T17:45:34.419Z,100984.44
2023-03-19T17:48:00.828Z,100985.94
2023-03-19T17:50:29.021Z,100995.97
2023-03-19T17:52:55.447Z,100994.47
2023-03-19T17:55:22.753Z,101000.19
2023-03-19T17:57:51.875Z,101005.22
2023-03-19T18:00:18.815Z,101005.22
2023-03-19T18:02:45.484Z,101001.59
2023-03-19T18:05:18.816Z,101006.63
2023-03-19T18:07:45.554Z,101009.50
2023-03-19T18:10:15.507Z,101009.50
2023-03-19T18:12:41.838Z,101010.13
2023-03-19T18:15:08.296Z,101008.66
2023-03-19T18:17:34.619Z,101012.91
2023-03-19T18:20:01.841Z,101014.41
2023-03-19T18:22:29.022Z,101015.78
2023-03-19T18:24:55.351Z,101021.53
2023-03-19T18:27:24.551Z,101022.25
2023-03-19T18:29:51.073Z,101027.28
2023-03-19T18:32:22.707Z,101023.03
2023-03-19T18:34:49.046Z,101017.19
2023-03-19T18:37:15.962Z,101025.81
2023-03-19T18:39:42.336Z,101019.31
2023-03-19T18:42:09.960Z,101018.56
2023-03-19T18:44:36.292Z,101014.50
2023-03-19T18:47:02.629Z,101026.00
2023-03-19T18:49:28.942Z,101023.22
2023-03-19T18:52:02.649Z,101020.34
2023-03-19T18:54:30.736Z,101017.38
2023-03-19T18:56:57.188Z,101027.47
2023-03-19T18:59:25.079Z,101027.38
2023-03-19T19:01:52.499Z,101029.53
2023-03-19T19:04:18.863Z,101030.25
2023-03-19T19:06:48.095Z,101029.22
2023-03-19T19:09:14.643Z,101029.84
2023-03-19T19:11:41.089Z,101031.44
2023-03-19T19:14:08.584Z,101035.06
2023-03-19T19:16:36.035Z,101032.94
2023-03-19T19:19:02.735Z,101037.19
2023-03-19T19:21:29.078Z,101033.59
2023-03-19T19:23:55.567Z,101039.34
2023-03-19T19:26:22.652Z,101041.56
2023-03-19T19:28:48.991Z,101043.69
2023-03-19T19:31:19.490Z,101048.69
2023-03-19T19:33:45.840Z,101054.44
2023-03-19T19:36:12.195Z,101053.72
2023-03-19T19:38:38.553Z,101050.06
2023-03-19T19:41:05.713Z,101051.47
2023-03-19T19:43:32.077Z,101057.97
2023-03-19T19:45:58.431Z,101057.22
2023-03-19T19:48:25.349Z,101063.59
2023-03-19T19:50:51.842Z,101057.13
2023-03-19T19:53:18.285Z,101055.63
2023-03-19T19:55:44.795Z,101058.53
2023-03-19T19:58:18.336Z,101061.41
2023-03-19T20:00:50.327Z,101061.41
2023-03-19T20:03:27.134Z,101067.13
2023-03-19T20:05:53.525Z,101062.75
2023-03-19T20:08:19.914Z,101063.41
2023-03-19T20:10:46.406Z,101057.66
2023-03-19T20:13:21.317Z,101055.53
2023-03-19T20:15:47.730Z,101056.16
2023-03-19T20:18:14.684Z,101058.31
2023-03-19T20:20:41.012Z,101066.94
2023-03-19T20:23:07.556Z,101057.56
2023-03-19T20:25:34.197Z,101064.78
2023-03-19T20:28:00.776Z,101065.44
2023-03-19T20:30:31.291Z,101066.19
2023-03-19T20:32:58.053Z,101064.69
2023-03-19T20:35:25.356Z,101071.84
2023-03-19T20:37:52.068Z,101074.72
2023-03-19T20:40:18.644Z,101079.69
2023-03-19T20:42:45.994Z,101078.94
2023-03-19T20:45:16.179Z,101081.81
2023-03-19T20:47:42.513Z,101077.47
2023-03-19T20:50:15.458Z,101079.63
2023-03-19T20:52:41.773Z,101080.34
2023-03-19T20:55:08.732Z,101082.50
2023-03-19T20:57:35.050Z,101088.25
2023-03-19T21:00:01.928Z,101085.25
2023-03-19T21:02:28.456Z,101086.00
2023-03-19T21:04:54.833Z,101078.00
2023-03-19T21:07:27.218Z,101087.47
2023-03-19T21:09:53.532Z,101080.97
2023-03-19T21:12:25.577Z,101076.75
2023-03-19T21:14:53.062Z,101085.38
2023-03-19T21:17:19.908Z,101079.63
2023-03-19T21:19:46.232Z,101083.22
2023-03-19T21:22:14.041Z,101086.22
2023-03-19T21:24:40.523Z,101092.59
2023-03-19T21:27:08.057Z,101089.72
2023-03-19T21:29:34.436Z,101085.22
2023-03-19T21:32:00.770Z,101084.38
2023-03-19T21:34:28.329Z,101084.38
2023-03-19T21:36:54.774Z,101082.88
2023-03-19T21:39:21.925Z,101075.66
2023-03-19T21:41:48.306Z,101081.41
2023-03-19T21:44:15.432Z,101075.66
2023-03-19T21:46:42.428Z,101081.41
2023-03-19T21:49:11.984Z,101078.53
2023-03-19T21:51:38.325Z,101085.66
2023-03-19T21:54:05.552Z,101085.66
2023-03-19T21:56:37.481Z,101082.78
2023-03-19T21:59:04.244Z,101087.16
2023-03-19T22:01:30.580Z,101069.81
2023-03-19T22:03:57.123Z,101074.91
2023-03-19T22:06:24.651Z,101069.81
2023-03-19T22:08:53.613Z,101074.16
2023-03-19T22:11:29.529Z,101072.78
2023-03-19T22:14:01.909Z,101065.53
2023-03-19T22:16:28.964Z,101064.06
2023-03-19T22:18:55.356Z,101068.41
2023-03-19T22:21:22.073Z,101074.16
2023-03-19T22:23:48.405Z,101064.06
2023-03-19T22:26:23.925Z,101066.94
2023-03-19T22:28:50.269Z,101072.69
2023-03-19T22:31:16.678Z,101065.44
2023-03-19T22:33:43.088Z,101071.19
2023-03-19T22:36:12.634Z,101074.72
2023-03-19T22:38:38.963Z,101072.56
2023-03-19T22:41:05.297Z,101068.19
2023-03-19T22:43:32.002Z,101069.69
2023-03-19T22:45:59.350Z,101069.59
2023-03-19T22:48:26.006Z,101062.44
2023-03-19T22:50:52.386Z,101062.44
2023-03-19T22:53:19.520Z,101066.72
2023-03-19T22:55:45.973Z,101063.84
2023-03-19T22:58:12.294Z,101053.75
2023-03-19T23:00:38.652Z,101058.00
2023-03-19T23:03:05.335Z,101065.25
2023-03-19T23:05:32.563Z,101066.72
2023-03-19T23:07:58.890Z,101065.25
2023-03-19T23:10:26.741Z,101062.25
2023-03-19T23:12:53.617Z,101060.75
2023-03-19T23:15:20.742Z,101069.38
2023-03-19T23:17:47.390Z,101064.28
2023-03-19T23:20:13.820Z,101067.91
2023-03-19T23:22:40.350Z,101066.50
2023-03-19T23:25:09.474Z,101059.16
2023-03-19T23:27:36.882Z,101060.53
2023-03-19T23:30:03.755Z,101055.66
2023-03-19T23:32:30.103Z,101062.16
2023-03-19T23:35:01.225Z,101054.16
2023-03-19T23:37:28.811Z,101060.66
2023-03-19T23:39:56.224Z,101056.41
2023-03-19T23:42:25.217Z,101058.53
2023-03-19T23:44:52.512Z,101059.16
2023-03-19T23:47:18.857Z,101066.28
2023-03-19T23:49:45.726Z,101063.41
2023-03-19T23:52:12.710Z,101066.28
2023-03-19T23:54:39.081Z,101063.41
2023-03-19T23:57:06.614Z,101069.94
2023-03-19T23:59:34.035Z,101066.28
